Time;durP1;ratioP1;P1;durP2;ratioP2;P2;SDS_P1;SDS_P2;PMS_P1;PMS_P2;Temp;Humidity;BMP_temperature;BMP_pressure;BME280_temperature;BME280_humidity;BME280_pressure;Samples;Min_cycle;Max_cycle;Signal;HPM_P1;HPM_P2
2023/07/25 00:00:32;;;;;;;13.40;6.20;;;;;;;15.23;100.00;100573.50;5052374;28;20442;-74
2023/07/25 00:02:57;;;;;;;11.02;5.93;;;;;;;15.20;100.00;100568.38;5050203;28;20237;-74
2023/07/25 00:05:23;;;;;;;8.43;5.13;;;;;;;15.20;100.00;100567.53;5051028;28;20044;-74
2023/07/25 00:07:49;;;;;;;13.75;6.47;;;;;;;15.14;100.00;100560.03;5078542;27;20029;-74
2023/07/25 00:10:15;;;;;;;11.05;5.28;;;;;;;15.14;100.00;100568.91;5045538;28;20057;-74
2023/07/25 00:12:41;;;;;;;12.15;5.75;;;;;;;15.12;100.00;100568.22;5048093;28;20033;-74
2023/07/25 00:15:11;;;;;;;10.65;5.65;;;;;;;15.08;100.00;100568.63;5052355;28;20087;-74
2023/07/25 00:17:37;;;;;;;15.60;5.72;;;;;;;14.99;100.00;100564.88;5048692;28;20067;-73
2023/07/25 00:20:03;;;;;;;13.20;5.53;;;;;;;15.00;100.00;100569.25;5051414;28;20047;-73
2023/07/25 00:22:29;;;;;;;12.77;6.13;;;;;;;15.00;100.00;100566.56;5062643;28;20045;-73
2023/07/25 00:24:54;;;;;;;10.05;6.05;;;;;;;14.94;100.00;100569.78;5049215;28;20066;-74
2023/07/25 00:27:20;;;;;;;16.95;5.53;;;;;;;14.97;100.00;100574.91;5028452;28;20029;-73
2023/07/25 00:29:47;;;;;;;12.23;6.10;;;;;;;14.95;100.00;100574.19;5046793;28;20504;-73
2023/07/25 00:32:12;;;;;;;11.07;7.53;;;;;;;15.00;100.00;100569.25;5049852;28;20765;-73
2023/07/25 00:34:38;;;;;;;15.73;7.13;;;;;;;14.99;100.00;100571.09;5050257;28;20889;-73
2023/07/25 00:37:04;;;;;;;15.27;6.55;;;;;;;14.98;100.00;100579.31;5056583;28;20687;-73
2023/07/25 00:39:30;;;;;;;9.40;7.20;;;;;;;14.93;100.00;100579.69;5048079;28;20048;-73
2023/07/25 00:41:56;;;;;;;11.48;6.25;;;;;;;14.94;100.00;100575.16;5080943;28;20149;-74
2023/07/25 00:44:21;;;;;;;17.00;6.55;;;;;;;14.92;100.00;100578.00;5048008;28;20033;-73
2023/07/25 00:46:47;;;;;;;11.45;6.15;;;;;;;14.91;100.00;100580.78;5063443;28;20506;-73
2023/07/25 00:49:15;;;;;;;12.48;6.13;;;;;;;14.86;100.00;100585.69;5047582;28;20729;-73
2023/07/25 00:51:42;;;;;;;17.52;7.47;;;;;;;14.82;100.00;100581.59;5047614;28;21251;-73
2023/07/25 00:54:08;;;;;;;10.50;5.95;;;;;;;14.80;100.00;100588.91;5049400;28;20047;-73
2023/07/25 00:56:34;;;;;;;20.80;6.53;;;;;;;14.72;100.00;100586.91;5047756;28;20660;-72
2023/07/25 00:59:00;;;;;;;15.88;6.20;;;;;;;14.66;100.00;100590.97;5046936;28;20048;-73
2023/07/25 01:01:27;;;;;;;12.88;6.32;;;;;;;14.63;100.00;100588.53;5044569;28;20492;-73
2023/07/25 01:03:55;;;;;;;14.75;6.63;;;;;;;14.61;100.00;100589.63;5047893;28;20170;-73
2023/07/25 01:06:21;;;;;;;13.70;6.30;;;;;;;14.55;100.00;100588.31;5050066;28;20060;-74
2023/07/25 01:08:54;;;;;;;13.27;6.72;;;;;;;14.55;100.00;100590.13;5046901;28;20587;-73
2023/07/25 01:11:21;;;;;;;20.10;5.80;;;;;;;14.46;100.00;100586.38;5045344;28;20045;-73
2023/07/25 01:13:47;;;;;;;8.77;5.63;;;;;;;14.40;100.00;100587.72;5046632;28;20133;-73
2023/07/25 01:16:19;;;;;;;14.82;6.03;;;;;;;14.38;100.00;100578.97;5043582;28;20503;-73
2023/07/25 01:18:45;;;;;;;14.25;6.78;;;;;;;14.34;100.00;100573.97;5030332;28;20092;-73
2023/07/25 01:21:15;;;;;;;11.32;5.90;;;;;;;14.24;100.00;100565.84;5048416;28;21005;-73
2023/07/25 01:23:43;;;;;;;10.55;5.43;;;;;;;14.17;100.00;100570.03;5064048;28;20071;-73
2023/07/25 01:26:09;;;;;;;10.45;5.25;;;;;;;14.21;100.00;100577.69;5042172;28;20052;-73
2023/07/25 01:28:38;;;;;;;11.18;5.13;;;;;;;14.16;100.00;100582.59;5021003;28;20111;-75
2023/07/25 01:31:04;;;;;;;14.32;5.55;;;;;;;14.18;100.00;100574.41;5042662;28;20091;-72
2023/07/25 01:33:30;;;;;;;12.27;6.50;;;;;;;14.17;100.00;100578.06;5047537;28;20091;-73
2023/07/25 01:35:55;;;;;;;11.35;5.85;;;;;;;14.15;100.00;100570.13;5041916;28;20545;-73
2023/07/25 01:38:21;;;;;;;11.98;5.97;;;;;;;14.14;100.00;100572.94;5047150;28;20453;-73
2023/07/25 01:40:46;;;;;;;11.38;5.82;;;;;;;14.08;100.00;100573.47;5054929;28;20615;-73
2023/07/25 01:43:12;;;;;;;9.80;4.53;;;;;;;13.97;100.00;100574.34;5043355;28;20045;-73
2023/07/25 01:45:38;;;;;;;8.65;5.20;;;;;;;13.94;100.00;100577.28;5048604;28;20060;-73
2023/07/25 01:48:04;;;;;;;14.52;6.63;;;;;;;13.95;100.00;100570.94;5046819;28;20631;-73
2023/07/25 01:50:30;;;;;;;8.60;5.22;;;;;;;13.93;100.00;100565.69;5079329;28;20090;-73
2023/07/25 01:52:56;;;;;;;20.02;6.13;;;;;;;13.92;100.00;100566.69;5047341;28;20115;-73
2023/07/25 01:55:21;;;;;;;11.05;5.57;;;;;;;13.83;100.00;100564.75;5051697;28;20132;-73
2023/07/25 01:57:47;;;;;;;7.65;5.15;;;;;;;13.78;100.00;100560.75;5046655;28;20057;-73
2023/07/25 02:00:13;;;;;;;9.85;5.43;;;;;;;13.83;100.00;100566.59;5060795;28;20033;-73
2023/07/25 02:02:43;;;;;;;9.30;5.20;;;;;;;13.76;100.00;100560.88;5047317;28;20159;-73
2023/07/25 02:05:09;;;;;;;10.35;5.38;;;;;;;13.72;100.00;100564.78;5043833;28;20037;-73
2023/07/25 02:07:35;;;;;;;7.75;3.53;;;;;;;13.54;100.00;100551.03;5041151;28;20781;-72
2023/07/25 02:10:00;;;;;;;7.00;4.40;;;;;;;13.61;100.00;100549.56;5047746;28;20033;-73
2023/07/25 02:12:28;;;;;;;9.65;5.20;;;;;;;13.65;100.00;100547.47;5048230;28;20040;-73
2023/07/25 02:14:54;;;;;;;10.68;4.72;;;;;;;13.53;100.00;100543.13;5046806;28;20044;-73
2023/07/25 02:17:20;;;;;;;11.63;4.88;;;;;;;13.51;100.00;100537.91;5053019;28;20048;-73
2023/07/25 02:19:46;;;;;;;11.68;5.75;;;;;;;13.49;100.00;100545.19;5047595;28;20132;-73
2023/07/25 02:22:13;;;;;;;8.52;4.57;;;;;;;13.45;100.00;100541.03;5046293;28;20115;-72
2023/07/25 02:24:38;;;;;;;5.63;4.35;;;;;;;13.47;100.00;100545.31;5041454;28;20041;-73
2023/07/25 02:27:04;;;;;;;8.20;3.50;;;;;;;13.39;100.00;100541.53;5055284;28;20041;-73
2023/07/25 02:29:30;;;;;;;9.43;5.22;;;;;;;13.37;100.00;100541.66;5045590;28;20498;-72
2023/07/25 02:31:56;;;;;;;11.80;5.63;;;;;;;13.40;100.00;100543.25;5051447;28;20485;-73
2023/07/25 02:34:21;;;;;;;11.23;6.07;;;;;;;13.38;100.00;100538.00;5045148;28;20033;-73
2023/07/25 02:36:47;;;;;;;9.13;5.63;;;;;;;13.39;100.00;100538.84;5045406;28;20708;-72
2023/07/25 02:39:13;;;;;;;7.20;5.10;;;;;;;13.23;100.00;100533.88;5048362;28;20494;-73
2023/07/25 02:41:38;;;;;;;7.57;3.92;;;;;;;13.23;100.00;100533.03;5057847;28;20079;-73
2023/07/25 02:44:05;;;;;;;5.38;3.70;;;;;;;13.14;100.00;100540.78;5055273;28;20087;-73
2023/07/25 02:46:30;;;;;;;6.75;3.92;;;;;;;13.09;100.00;100542.97;5054391;28;20438;-72
2023/07/25 02:48:56;;;;;;;9.75;4.80;;;;;;;13.09;100.00;100542.13;5045949;28;20036;-73
2023/07/25 02:51:21;;;;;;;8.23;4.63;;;;;;;13.14;100.00;100539.94;5046772;28;20519;-73
2023/07/25 02:53:47;;;;;;;5.47;4.60;;;;;;;13.18;100.00;100538.72;5046723;28;20041;-73
2023/07/25 02:56:13;;;;;;;10.27;4.70;;;;;;;13.14;100.00;100545.28;5047346;28;20532;-73
2023/07/25 02:58:38;;;;;;;9.45;4.82;;;;;;;13.14;100.00;100540.78;5052144;28;20064;-72
2023/07/25 03:01:04;;;;;;;8.32;4.75;;;;;;;13.27;100.00;100545.22;5043262;28;20119;-72
2023/07/25 03:03:30;;;;;;;12.13;7.55;;;;;;;13.31;100.00;100554.72;5047304;28;20037;-72
2023/07/25 03:05:56;;;;;;;15.63;7.53;;;;;;;13.35;100.00;100548.09;5046408;28;20033;-73
2023/07/25 03:08:21;;;;;;;13.02;7.72;;;;;;;13.33;100.00;100540.22;5049940;28;20569;-73
2023/07/25 03:10:47;;;;;;;16.63;7.95;;;;;;;13.37;100.00;100549.72;5061786;28;20037;-73
2023/07/25 03:13:13;;;;;;;16.65;8.00;;;;;;;13.38;100.00;100542.53;5047140;28;20033;-73
2023/07/25 03:15:39;;;;;;;12.38;7.80;;;;;;;13.39;100.00;100549.56;5052208;28;20110;-73
2023/07/25 03:18:07;;;;;;;19.90;7.40;;;;;;;13.41;100.00;100547.66;5048430;28;20040;-73
2023/07/25 03:20:33;;;;;;;17.27;8.40;;;;;;;13.41;100.00;100553.00;5061220;28;20661;-73
2023/07/25 03:22:59;;;;;;;14.73;7.78;;;;;;;13.46;100.00;100550.81;5051578;28;20045;-73
2023/07/25 03:25:25;;;;;;;13.98;7.50;;;;;;;13.52;100.00;100549.47;5042409;28;20044;-73
2023/07/25 03:27:51;;;;;;;21.08;8.95;;;;;;;13.47;100.00;100552.50;5062738;28;20041;-73
2023/07/25 03:30:17;;;;;;;22.92;8.57;;;;;;;13.53;100.00;100564.56;5046658;28;20041;-72
2023/07/25 03:32:43;;;;;;;16.55;8.65;;;;;;;13.51;100.00;100558.47;5035659;28;20064;-73
2023/07/25 03:35:09;;;;;;;16.92;9.30;;;;;;;13.44;100.00;100564.28;5048158;28;20029;-73
2023/07/25 03:37:34;;;;;;;23.35;9.52;;;;;;;13.58;100.00;100554.31;5046801;28;20041;-73
2023/07/25 03:40:00;;;;;;;19.58;7.90;;;;;;;13.56;100.00;100557.13;5046204;28;20072;-73
2023/07/25 03:42:25;;;;;;;20.30;9.50;;;;;;;13.55;100.00;100555.41;5048258;28;20059;-74
2023/07/25 03:44:51;;;;;;;13.68;9.13;;;;;;;13.53;100.00;100560.03;5080933;28;20044;-73
2023/07/25 03:47:17;;;;;;;16.48;8.85;;;;;;;13.52;100.00;100563.69;5056140;28;20071;-73
2023/07/25 03:49:45;;;;;;;14.18;9.10;;;;;;;13.56;100.00;100564.31;5055872;28;20045;-73
2023/07/25 03:52:15;;;;;;;17.10;9.45;;;;;;;13.53;100.00;100564.56;5047623;28;20121;-73
2023/07/25 03:54:45;;;;;;;17.73;9.60;;;;;;;13.55;100.00;100560.75;5044316;28;20046;-74
2023/07/25 03:57:12;;;;;;;17.70;8.95;;;;;;;13.59;100.00;100564.06;5049755;28;20037;-73
2023/07/25 03:59:44;;;;;;;24.80;9.13;;;;;;;13.66;100.00;100557.25;5056725;28;20034;-74
2023/07/25 04:02:09;;;;;;;13.20;9.30;;;;;;;13.84;100.00;100561.09;5043761;28;20033;-73
2023/07/25 04:04:38;;;;;;;11.82;7.90;;;;;;;13.94;100.00;100548.63;5038847;28;20994;-73
2023/07/25 04:07:04;;;;;;;14.57;8.23;;;;;;;14.00;100.00;100544.59;5041038;28;20048;-73
2023/07/25 04:09:30;;;;;;;12.57;8.20;;;;;;;14.01;100.00;100540.97;5044146;28;20176;-73
2023/07/25 04:11:55;;;;;;;14.90;7.82;;;;;;;14.02;100.00;100536.44;5049158;28;20107;-73
2023/07/25 04:14:21;;;;;;;15.55;8.77;;;;;;;14.03;100.00;100540.81;5080207;28;20029;-73
2023/07/25 04:16:47;;;;;;;15.52;8.10;;;;;;;14.06;100.00;100544.09;5017882;28;20041;-73
2023/07/25 04:19:13;;;;;;;20.77;9.10;;;;;;;14.03;100.00;100540.81;5044260;28;20041;-73
2023/07/25 04:21:39;;;;;;;20.40;8.82;;;;;;;13.98;100.00;100550.09;5046984;28;20048;-74
2023/07/25 04:24:05;;;;;;;16.42;9.57;;;;;;;13.95;100.00;100546.78;5047923;28;20033;-73
2023/07/25 04:26:31;;;;;;;14.50;8.88;;;;;;;13.97;100.00;100545.72;5041655;28;20029;-74
2023/07/25 04:28:57;;;;;;;17.02;9.55;;;;;;;14.04;100.00;100540.69;5050875;28;20508;-74
2023/07/25 04:31:22;;;;;;;13.25;8.40;;;;;;;14.09;100.00;100537.63;5054811;28;20021;-73
2023/07/25 04:33:48;;;;;;;16.08;9.13;;;;;;;14.19;100.00;100538.56;5050951;28;20402;-74
2023/07/25 04:36:13;;;;;;;14.00;8.30;;;;;;;14.28;100.00;100545.84;5050497;28;20068;-73
2023/07/25 04:38:40;;;;;;;19.35;8.18;;;;;;;14.31;100.00;100547.41;5067644;28;20132;-73
2023/07/25 04:41:08;;;;;;;13.70;7.95;;;;;;;14.33;100.00;100546.31;5054771;28;20037;-72
2023/07/25 04:43:34;;;;;;;18.58;8.63;;;;;;;14.30;100.00;100545.72;5049157;28;20033;-74
2023/07/25 04:46:00;;;;;;;19.42;9.57;;;;;;;14.19;100.00;100552.81;5044563;28;20040;-73
2023/07/25 04:48:26;;;;;;;17.85;8.27;;;;;;;14.17;100.00;100554.78;5047060;28;20314;-74
2023/07/25 04:50:51;;;;;;;12.70;8.13;;;;;;;14.16;100.00;100549.56;5050451;28;20462;-73
2023/07/25 04:53:17;;;;;;;21.02;8.20;;;;;;;14.29;100.00;100547.53;5044380;28;20045;-73
2023/07/25 04:55:46;;;;;;;14.80;8.35;;;;;;;14.36;100.00;100537.16;5049892;28;20111;-73
2023/07/25 04:58:15;;;;;;;16.92;8.05;;;;;;;14.55;100.00;100542.69;5043776;28;20046;-74
2023/07/25 05:00:43;;;;;;;15.35;7.22;;;;;;;14.74;100.00;100548.19;5047594;28;20034;-73
2023/07/25 05:03:09;;;;;;;18.00;8.27;;;;;;;14.96;100.00;100543.66;5058889;28;20633;-73
2023/07/25 05:05:34;;;;;;;22.23;8.27;;;;;;;15.17;100.00;100549.03;5057068;28;20033;-74
2023/07/25 05:08:00;;;;;;;19.60;8.00;;;;;;;15.32;100.00;100555.72;5049168;28;20049;-74
2023/07/25 05:10:25;;;;;;;18.67;7.05;;;;;;;15.30;100.00;100557.69;5048251;28;20984;-73
2023/07/25 05:12:51;;;;;;;19.45;7.95;;;;;;;15.34;100.00;100544.84;5049599;28;20628;-73
2023/07/25 05:15:17;;;;;;;16.35;7.97;;;;;;;15.36;100.00;100550.91;5043357;28;20033;-71
2023/07/25 05:17:45;;;;;;;14.63;6.97;;;;;;;15.50;100.00;100550.56;5047893;28;20608;-71
2023/07/25 05:20:12;;;;;;;13.00;6.88;;;;;;;15.59;100.00;100549.75;5048160;28;20112;-73
2023/07/25 05:22:45;;;;;;;14.00;6.80;;;;;;;15.65;100.00;100548.38;5045082;28;20041;-73
2023/07/25 05:25:13;;;;;;;15.88;7.32;;;;;;;15.66;100.00;100544.69;5048066;28;20037;-73
2023/07/25 05:27:43;;;;;;;18.63;8.25;;;;;;;15.72;100.00;100544.16;5050832;28;21195;-73
2023/07/25 05:30:09;;;;;;;15.32;6.85;;;;;;;15.79;100.00;100538.09;5053111;28;20048;-73
2023/07/25 05:32:35;;;;;;;14.45;6.38;;;;;;;15.80;100.00;100549.69;5057667;28;20912;-73
2023/07/25 05:35:01;;;;;;;13.00;6.45;;;;;;;15.90;100.00;100550.56;5050335;28;20515;-72
2023/07/25 05:37:34;;;;;;;18.13;7.10;;;;;;;15.84;100.00;100544.88;5049759;28;20044;-73
2023/07/25 05:40:03;;;;;;;14.13;6.00;;;;;;;15.84;100.00;100542.19;5049448;28;20647;-73
2023/07/25 05:42:29;;;;;;;13.30;6.18;;;;;;;16.08;100.00;100537.28;5046927;28;20041;-74
2023/07/25 05:44:55;;;;;;;14.10;6.82;;;;;;;16.43;100.00;100533.19;5081969;28;20562;-73
2023/07/25 05:47:21;;;;;;;9.95;5.97;;;;;;;16.89;100.00;100535.13;5077095;27;20042;-71
2023/07/25 05:49:46;;;;;;;11.40;5.85;;;;;;;17.18;100.00;100531.50;5045195;28;20161;-72
2023/07/25 05:52:13;;;;;;;12.90;6.10;;;;;;;17.13;100.00;100541.88;5048302;28;20025;-71
2023/07/25 05:54:41;;;;;;;18.40;7.80;;;;;;;17.48;100.00;100541.16;5045927;28;20841;-71
2023/07/25 05:57:07;;;;;;;10.52;5.60;;;;;;;17.81;100.00;100545.97;5029938;28;20033;-71
2023/07/25 05:59:33;;;;;;;18.75;6.28;;;;;;;17.87;100.00;100539.13;5048009;28;20040;-70
2023/07/25 06:01:58;;;;;;;17.30;5.72;;;;;;;17.66;100.00;100533.97;5040840;28;20565;-71
2023/07/25 06:04:25;;;;;;;17.00;5.72;;;;;;;18.11;100.00;100533.13;5049434;28;20553;-71
2023/07/25 06:06:51;;;;;;;9.50;5.03;;;;;;;18.57;98.85;100536.56;5044996;28;20055;-71
2023/07/25 06:09:16;;;;;;;14.05;4.78;;;;;;;19.01;94.89;100532.03;5040599;28;20521;-71
2023/07/25 06:11:45;;;;;;;11.77;4.80;;;;;;;19.52;92.95;100532.13;5044665;28;20716;-71
2023/07/25 06:14:11;;;;;;;10.73;4.90;;;;;;;19.74;90.50;100531.59;5046163;28;20072;-72
2023/07/25 06:16:37;;;;;;;8.43;4.22;;;;;;;20.62;88.12;100523.75;5079575;27;20037;-72
2023/07/25 06:19:02;;;;;;;9.38;4.88;;;;;;;21.16;80.97;100534.88;5047612;28;20049;-72
2023/07/25 06:21:28;;;;;;;12.30;4.85;;;;;;;21.48;78.97;100530.38;5058760;28;20110;-72
2023/07/25 06:23:53;;;;;;;6.47;3.88;;;;;;;21.57;79.31;100529.31;5043268;28;20457;-73
2023/07/25 06:26:19;;;;;;;13.27;4.28;;;;;;;21.41;81.15;100537.53;5040281;28;20803;-72
2023/07/25 06:28:46;;;;;;;11.70;4.55;;;;;;;21.36;78.35;100531.78;5045679;28;20048;-72
2023/07/25 06:31:12;;;;;;;11.13;4.65;;;;;;;20.65;79.26;100536.13;5037433;28;20045;-72
2023/07/25 06:33:37;;;;;;;7.95;3.60;;;;;;;20.41;80.94;100539.66;5060484;28;20072;-71
2023/07/25 06:36:03;;;;;;;13.18;4.03;;;;;;;20.21;83.52;100541.84;5060019;28;20064;-72
2023/07/25 06:38:29;;;;;;;15.25;3.85;;;;;;;20.24;86.24;100536.09;5048465;28;20028;-72
2023/07/25 06:40:55;;;;;;;14.10;3.28;;;;;;;19.99;87.70;100546.03;5081058;28;20029;-72
2023/07/25 06:43:20;;;;;;;5.95;2.65;;;;;;;19.83;89.52;100541.44;5040488;28;20856;-72
2023/07/25 06:45:46;;;;;;;11.88;2.88;;;;;;;19.39;87.98;100548.81;5046721;28;20090;-72
2023/07/25 06:48:12;;;;;;;14.38;3.22;;;;;;;19.62;87.96;100543.69;5039570;28;20067;-72
2023/07/25 06:50:37;;;;;;;8.65;2.65;;;;;;;18.99;88.09;100552.13;5047627;28;20110;-72
2023/07/25 06:53:04;;;;;;;8.00;2.75;;;;;;;19.00;93.49;100554.66;5047518;28;20076;-72
2023/07/25 06:55:29;;;;;;;13.30;2.90;;;;;;;19.15;90.86;100560.34;5047239;28;20025;-74
2023/07/25 06:57:55;;;;;;;7.70;2.50;;;;;;;18.87;91.95;100556.94;5046272;28;20903;-74
2023/07/25 07:00:21;;;;;;;5.95;3.08;;;;;;;19.11;90.67;100557.09;5060529;28;20383;-74
2023/07/25 07:02:47;;;;;;;9.93;3.08;;;;;;;18.91;89.23;100555.63;5060994;28;20045;-71
2023/07/25 07:05:13;;;;;;;10.50;3.30;;;;;;;18.80;93.68;100559.44;5055960;28;20524;-71
2023/07/25 07:07:41;;;;;;;8.50;3.22;;;;;;;18.83;91.19;100556.44;5046053;28;20033;-74
2023/07/25 07:10:07;;;;;;;10.75;3.60;;;;;;;18.72;92.88;100558.50;5036208;28;20037;-73
2023/07/25 07:12:33;;;;;;;13.30;3.58;;;;;;;18.42;97.59;100560.59;5040712;28;20030;-73
2023/07/25 07:14:58;;;;;;;11.00;3.22;;;;;;;17.59;100.00;100566.09;5045752;28;20040;-73
2023/07/25 07:17:24;;;;;;;9.98;3.28;;;;;;;17.60;100.00;100567.78;5045164;28;20414;-73
2023/07/25 07:19:50;;;;;;;11.75;2.92;;;;;;;17.39;100.00;100569.00;5047638;28;20044;-73
2023/07/25 07:22:15;;;;;;;7.50;2.80;;;;;;;17.59;100.00;100571.47;5053514;28;20041;-74
2023/07/25 07:24:41;;;;;;;13.88;3.78;;;;;;;17.73;100.00;100578.25;5039469;28;20541;-73
2023/07/25 07:27:07;;;;;;;9.43;3.70;;;;;;;17.80;100.00;100590.13;5046558;28;20159;-73
2023/07/25 07:29:32;;;;;;;11.93;3.72;;;;;;;17.42;100.00;100593.84;5039742;28;20052;-73
2023/07/25 07:31:59;;;;;;;8.13;3.25;;;;;;;17.31;100.00;100596.69;5045701;28;20041;-73
2023/07/25 07:34:25;;;;;;;9.20;2.70;;;;;;;17.15;100.00;100596.47;5044809;28;20130;-73
2023/07/25 07:36:51;;;;;;;9.68;2.90;;;;;;;17.55;100.00;100593.50;5046782;28;20083;-73
2023/07/25 07:39:16;;;;;;;5.97;2.40;;;;;;;17.63;100.00;100588.22;5079313;28;20033;-73
2023/07/25 07:41:42;;;;;;;5.78;2.20;;;;;;;18.06;100.00;100584.00;5048078;28;20041;-73
2023/07/25 07:44:08;;;;;;;7.93;2.35;;;;;;;18.40;97.55;100586.91;5055750;28;20176;-73
2023/07/25 07:46:34;;;;;;;5.78;2.08;;;;;;;19.51;93.48;100588.09;5046372;28;20144;-73
2023/07/25 07:49:00;;;;;;;8.30;2.40;;;;;;;18.88;91.39;100596.47;5047138;28;20635;-73
2023/07/25 07:51:27;;;;;;;15.63;2.72;;;;;;;18.40;90.91;100599.56;5033833;28;20174;-73
2023/07/25 07:53:53;;;;;;;8.10;2.20;;;;;;;18.71;90.59;100602.75;5039505;28;20053;-73
2023/07/25 07:56:19;;;;;;;5.57;2.05;;;;;;;18.40;89.24;100599.56;5041960;28;20029;-72
2023/07/25 07:58:45;;;;;;;6.07;1.70;;;;;;;17.52;94.72;100605.44;5041851;28;20064;-72
2023/07/25 08:01:18;;;;;;;4.40;2.05;;;;;;;17.04;99.47;100605.56;5052228;28;20037;-72
2023/07/25 08:03:45;;;;;;;2.42;1.48;;;;;;;17.21;96.64;100610.19;5043436;28;20037;-72
2023/07/25 08:06:11;;;;;;;5.35;1.67;;;;;;;17.73;94.55;100617.88;5052128;28;20044;-72
2023/07/25 08:08:37;;;;;;;5.65;2.15;;;;;;;17.96;89.73;100619.16;5040435;28;20048;-72
2023/07/25 08:11:03;;;;;;;8.52;1.58;;;;;;;18.38;85.85;100621.31;5036221;28;20044;-72
2023/07/25 08:13:29;;;;;;;7.30;1.80;;;;;;;18.22;87.33;100632.75;5052707;28;20045;-72
2023/07/25 08:15:54;;;;;;;6.85;1.88;;;;;;;18.21;85.32;100628.38;5085489;28;20072;-71
2023/07/25 08:18:20;;;;;;;6.18;1.67;;;;;;;18.34;88.76;100633.41;5044042;28;20550;-72
2023/07/25 08:20:46;;;;;;;6.85;2.03;;;;;;;18.59;86.09;100629.97;5047568;28;20084;-71
2023/07/25 08:23:12;;;;;;;8.30;2.35;;;;;;;18.49;84.10;100633.75;5070440;28;20037;-72
2023/07/25 08:25:39;;;;;;;5.18;1.58;;;;;;;18.58;86.60;100635.53;5044834;28;20047;-72
2023/07/25 08:28:05;;;;;;;9.02;2.05;;;;;;;18.68;86.62;100647.13;5039672;28;20113;-72
2023/07/25 08:30:31;;;;;;;5.20;1.42;;;;;;;18.56;88.32;100651.00;5052844;28;20036;-72
2023/07/25 08:32:57;;;;;;;8.57;2.22;;;;;;;18.79;82.96;100644.19;5049080;28;20152;-71
2023/07/25 08:35:23;;;;;;;7.97;2.10;;;;;;;18.15;90.48;100644.34;5046535;28;20040;-72
2023/07/25 08:37:50;;;;;;;4.35;2.05;;;;;;;18.61;88.73;100638.75;5050913;28;20489;-71
2023/07/25 08:40:16;;;;;;;7.60;2.30;;;;;;;18.85;85.03;100643.56;5046705;28;20033;-72
2023/07/25 08:42:43;;;;;;;12.68;2.83;;;;;;;19.15;84.58;100646.84;5051354;28;20158;-72
2023/07/25 08:45:12;;;;;;;14.02;2.67;;;;;;;19.00;84.57;100648.41;5046326;28;20037;-71
2023/07/25 08:47:43;;;;;;;5.75;1.95;;;;;;;18.96;81.58;100642.47;5052016;28;20232;-72
2023/07/25 08:50:15;;;;;;;6.33;2.13;;;;;;;19.00;80.32;100643.84;5080926;28;20024;-72
2023/07/25 08:52:49;;;;;;;;;;;;;;;18.96;85.05;100650.56;5051275;28;20033;-72
2023/07/25 08:55:16;;;;;;;8.35;2.22;;;;;;;19.12;80.90;100652.56;5046886;28;20050;-72
2023/07/25 08:57:42;;;;;;;12.10;2.63;;;;;;;19.08;81.05;100657.44;5048124;28;20149;-72
2023/07/25 09:00:09;;;;;;;7.20;2.35;;;;;;;18.85;83.68;100650.81;5049560;28;20020;-72
2023/07/25 09:02:34;;;;;;;11.23;2.35;;;;;;;19.13;79.66;100656.97;5049818;28;20764;-71
2023/07/25 09:05:01;;;;;;;14.98;2.78;;;;;;;19.55;77.88;100650.84;5048549;28;20533;-72
2023/07/25 09:07:27;;;;;;;11.98;2.92;;;;;;;18.97;79.00;100654.13;5044650;28;20029;-72
2023/07/25 09:09:52;;;;;;;9.40;2.40;;;;;;;18.94;77.94;100651.75;5049324;28;20553;-72
2023/07/25 09:12:18;;;;;;;4.18;1.55;;;;;;;18.78;77.18;100650.59;5048689;28;20047;-72
2023/07/25 09:14:46;;;;;;;9.00;2.08;;;;;;;19.24;81.79;100645.91;5048512;28;20048;-71
2023/07/25 09:17:13;;;;;;;10.15;2.22;;;;;;;19.94;74.89;100640.41;5048457;28;20033;-72
2023/07/25 09:19:42;;;;;;;8.52;2.15;;;;;;;20.76;77.67;100635.22;5042191;28;20038;-71
2023/07/25 09:22:26;;;;;;;9.07;2.13;;;;;;;21.09;69.42;100630.66;5049308;28;20041;-71
2023/07/25 09:24:52;;;;;;;8.65;2.22;;;;;;;21.05;71.43;100634.72;5048058;28;20029;-72
2023/07/25 09:27:18;;;;;;;5.88;2.08;;;;;;;20.72;70.99;100636.56;5048190;28;20025;-72
2023/07/25 09:29:45;;;;;;;6.90;1.33;;;;;;;21.37;69.99;100637.41;5044692;28;20550;-72
2023/07/25 09:32:27;;;;;;;6.93;1.80;;;;;;;21.26;64.99;100645.03;5043473;28;20068;-72
2023/07/25 09:34:57;;;;;;;;;;;;;;;21.53;64.24;100644.66;5036822;28;20042;-72
2023/07/25 09:37:22;;;;;;;6.78;1.42;;;;;;;21.28;63.61;100641.13;5031213;28;20362;-72
2023/07/25 09:39:48;;;;;;;6.25;1.67;;;;;;;21.09;65.62;100652.34;5046913;28;20029;-72
2023/07/25 09:42:14;;;;;;;11.70;2.95;;;;;;;21.25;64.60;100644.19;5042177;28;20180;-71
2023/07/25 09:44:47;;;;;;;10.95;2.85;;;;;;;21.41;71.68;100641.47;5047592;28;20035;-72
2023/07/25 09:47:20;;;;;;;6.05;1.73;;;;;;;21.69;68.26;100641.94;5043608;28;20037;-71
2023/07/25 09:49:49;;;;;;;8.57;1.90;;;;;;;;;;5048499;28;20119;-72
2023/07/25 09:52:16;;;;;;;5.90;2.10;;;;;;;22.38;68.74;100644.00;5046977;28;20039;-72
2023/07/25 09:54:43;;;;;;;6.85;2.35;;;;;;;21.87;68.02;100649.81;5047674;28;20048;-72
2023/07/25 09:57:09;;;;;;;7.20;2.13;;;;;;;22.08;64.34;100649.22;5062351;28;20127;-72
2023/07/25 09:59:37;;;;;;;5.32;1.98;;;;;;;20.73;69.29;100655.34;5044744;28;20137;-72
2023/07/25 10:02:06;;;;;;;11.95;2.13;;;;;;;21.42;66.54;100648.59;5045644;28;20045;-72
2023/07/25 10:04:33;;;;;;;6.85;2.25;;;;;;;20.62;72.06;100658.41;5047911;28;20029;-73
2023/07/25 10:06:59;;;;;;;7.75;2.00;;;;;;;20.03;75.71;100663.81;5046866;28;20944;-73
2023/07/25 10:09:25;;;;;;;5.30;2.08;;;;;;;19.68;76.68;100659.41;5042020;28;20565;-73
2023/07/25 10:11:53;;;;;;;7.07;2.08;;;;;;;19.57;77.24;100655.06;5041053;28;20812;-73
2023/07/25 10:14:19;;;;;;;7.35;2.25;;;;;;;19.82;78.15;100661.47;5029588;28;20610;-73
2023/07/25 10:16:46;;;;;;;4.45;1.70;;;;;;;20.23;73.64;100655.38;5046955;28;20040;-73
2023/07/25 10:19:12;;;;;;;11.13;1.95;;;;;;;20.64;70.64;100656.38;5046314;28;20132;-71
2023/07/25 10:22:05;;;;;;;7.10;2.00;;;;;;;21.18;69.23;100645.88;5046857;28;20056;-74
2023/07/25 10:24:33;;;;;;;4.82;1.65;;;;;;;21.57;68.87;100646.00;5040276;28;20282;-74
2023/07/25 10:26:59;;;;;;;4.28;1.60;;;;;;;21.71;68.43;100639.03;5029159;28;20040;-74
2023/07/25 10:29:58;;;;;;;6.95;1.75;;;;;;;21.70;68.78;100640.91;5043496;28;20033;-74
2023/07/25 10:32:44;;;;;;;4.35;1.65;;;;;;;21.27;65.96;100639.44;5040087;28;20045;-73
2023/07/25 10:35:12;;;;;;;6.90;1.50;;;;;;;21.18;66.46;100637.75;5045474;28;20179;-73
2023/07/25 10:37:43;;;;;;;4.68;1.63;;;;;;;21.44;63.09;100638.44;5032846;28;20033;-73
2023/07/25 10:40:16;;;;;;;9.10;2.10;;;;;;;22.41;65.00;100632.78;5057686;28;20033;-73
2023/07/25 10:42:57;;;;;;;5.20;1.70;;;;;;;23.58;59.10;100634.19;5047509;28;20045;-73
2023/07/25 10:45:30;;;;;;;4.43;1.40;;;;;;;23.89;57.16;100642.19;5079624;27;20044;-74
2023/07/25 10:47:59;;;;;;;4.80;1.30;;;;;;;22.87;54.47;100636.38;5048620;28;20040;-73
2023/07/25 10:50:45;;;;;;;9.65;1.23;;;;;;;21.97;55.28;100641.47;5059366;28;20635;-72
2023/07/25 10:53:24;;;;;;;6.95;1.10;;;;;;;21.81;54.54;100636.13;5042425;28;20067;-72
2023/07/25 10:56:06;;;;;;;2.88;1.00;;;;;;;22.06;55.46;100637.69;5044473;28;20801;-72
2023/07/25 10:59:08;;;;;;;3.38;1.30;;;;;;;21.76;57.48;100641.22;5045238;28;20033;-72
2023/07/25 11:01:34;;;;;;;4.57;0.95;;;;;;;22.06;55.43;100637.69;5024991;28;20052;-72
2023/07/25 11:04:31;;;;;;;4.65;1.38;;;;;;;22.62;53.84;100632.13;5045482;28;20259;-72
2023/07/25 11:07:12;;;;;;;5.25;1.40;;;;;;;22.95;52.88;100630.91;5056086;28;20029;-72
2023/07/25 11:09:43;;;;;;;2.72;1.05;;;;;;;22.88;54.77;100632.63;5074290;28;20926;-72
2023/07/25 11:12:10;;;;;;;3.20;1.23;;;;;;;22.18;55.22;100636.31;5044942;28;20988;-72
2023/07/25 11:14:42;;;;;;;6.03;1.33;;;;;;;21.82;54.07;100638.63;5049765;28;20861;-72
2023/07/25 11:17:07;;;;;;;1.33;0.90;;;;;;;21.95;54.32;100635.38;5047324;28;20122;-72